createdAt,value
2018-12-01T00:00:31.431Z,100968.58
2018-12-01T00:03:00.320Z,100970.94
2018-12-01T00:05:29.202Z,100969.98
2018-12-01T00:07:58.133Z,100967.72
2018-12-01T00:10:27.002Z,100964.83
2018-12-01T00:12:55.856Z,100968.58
2018-12-01T00:15:27.938Z,100974.95
2018-12-01T00:17:57.092Z,100970.72
2018-12-01T00:20:28.236Z,100969.17
2018-12-01T00:22:58.241Z,100973.41
2018-12-01T00:25:28.270Z,100967.97
2018-12-01T00:27:58.258Z,100967.23
2018-12-01T00:30:27.168Z,100973.72
2018-12-01T00:32:57.272Z,100973.40
2018-12-01T00:35:28.241Z,100970.41
2018-12-01T00:37:59.136Z,100965.05
2018-12-01T00:40:29.121Z,100965.75
2018-12-01T00:43:00.123Z,100962.58
2018-12-01T00:45:29.039Z,100966.05
2018-12-01T00:47:57.884Z,100963.10
2018-12-01T00:50:27.762Z,100961.59
2018-12-01T00:52:57.735Z,100956.63
2018-12-01T00:55:26.589Z,100961.21
2018-12-01T00:57:55.458Z,100960.62
2018-12-01T01:00:27.190Z,100964.09
2018-12-01T01:02:58.409Z,100957.34
2018-12-01T01:05:28.955Z,100968.45
2018-12-01T01:07:58.514Z,100966.84
2018-12-01T01:10:30.216Z,100974.05
2018-12-01T01:13:00.199Z,100969.23
2018-12-01T01:15:29.064Z,100963.41
2018-12-01T01:17:58.001Z,100968.99
2018-12-01T01:20:26.894Z,100976.56
2018-12-01T01:22:55.777Z,100979.50
2018-12-01T01:25:38.398Z,100970.97
2018-12-01T01:28:07.455Z,100972.80
2018-12-01T01:30:36.359Z,100972.80
2018-12-01T01:33:17.482Z,100975.99
2018-12-01T01:35:46.326Z,100979.05
2018-12-01T01:38:15.216Z,100978.61
2018-12-01T01:40:45.150Z,100980.71
2018-12-01T01:43:15.026Z,100979.27
2018-12-01T01:45:43.889Z,100978.45
2018-12-01T01:48:12.735Z,100981.77
2018-12-01T01:50:41.717Z,100980.72
2018-12-01T01:53:10.581Z,100982.94
2018-12-01T01:55:39.448Z,100979.90
2018-12-01T01:58:18.862Z,100976.97
2018-12-01T02:00:48.766Z,100977.84
2018-12-01T02:03:17.639Z,100981.34
2018-12-01T02:05:46.511Z,100976.73
2018-12-01T02:08:16.433Z,100976.45
2018-12-01T02:10:45.327Z,100966.59
2018-12-01T02:13:14.229Z,100971.77
2018-12-01T02:15:48.025Z,100967.27
2018-12-01T02:18:18.986Z,100970.30
2018-12-01T02:20:47.846Z,100969.06
2018-12-01T02:23:16.710Z,100974.23
2018-12-01T02:25:45.619Z,100970.05
2018-12-01T02:28:14.511Z,100972.84
2018-12-01T02:30:47.375Z,100967.17
2018-12-01T02:33:16.287Z,100954.22
2018-12-01T02:35:45.163Z,100959.83
2018-12-01T02:38:15.095Z,100947.66
2018-12-01T02:40:43.964Z,100948.08
2018-12-01T02:43:13.896Z,100951.02
2018-12-01T02:45:55.050Z,100958.78
2018-12-01T02:48:25.034Z,100954.03
2018-12-01T02:50:54.928Z,100958.02
2018-12-01T02:53:23.810Z,100955.31
2018-12-01T02:55:52.683Z,100948.39
2018-12-01T02:58:22.660Z,100953.31
2018-12-01T03:00:51.500Z,100949.27
2018-12-01T03:03:20.424Z,100947.81
2018-12-01T03:05:53.636Z,100947.75
2018-12-01T03:08:22.522Z,100945.72
2018-12-01T03:10:51.367Z,100949.73
2018-12-01T03:13:21.606Z,100957.38
2018-12-01T03:15:50.477Z,100951.70
2018-12-01T03:18:19.379Z,100956.67
2018-12-01T03:20:48.250Z,100955.23
2018-12-01T03:23:18.180Z,100955.81
2018-12-01T03:25:47.921Z,100951.63
2018-12-01T03:28:22.739Z,100943.05
2018-12-01T03:30:51.736Z,100937.11
2018-12-01T03:33:20.594Z,100943.91
2018-12-01T03:35:49.518Z,100942.70
2018-12-01T03:38:18.394Z,100937.11
2018-12-01T03:40:48.435Z,100946.23
2018-12-01T03:43:18.340Z,100945.50
2018-12-01T03:45:47.393Z,100945.00
2018-12-01T03:48:16.278Z,100953.74
2018-12-01T03:50:45.176Z,100947.84
2018-12-01T03:53:14.015Z,100959.92
2018-12-01T03:55:47.194Z,100956.69
2018-12-01T03:58:21.203Z,100958.92
2018-12-01T04:00:51.092Z,100968.41
2018-12-01T04:03:21.029Z,100974.17
2018-12-01T04:05:49.904Z,100968.84
2018-12-01T04:08:19.855Z,100971.99
2018-12-01T04:10:49.742Z,100972.64
2018-12-01T04:13:19.679Z,100971.32
2018-12-01T04:15:48.653Z,100972.99
2018-12-01T04:18:17.526Z,100975.22
2018-12-01T04:20:46.384Z,100972.37
2018-12-01T04:23:16.367Z,100976.54
2018-12-01T04:25:45.235Z,100974.83
2018-12-01T04:28:14.088Z,100977.03
2018-12-01T04:30:44.046Z,100983.70
2018-12-01T04:33:13.982Z,100979.86
2018-12-01T04:35:43.874Z,100984.10
2018-12-01T04:38:12.765Z,100988.56
2018-12-01T04:40:41.604Z,100992.72
2018-12-01T04:43:10.476Z,100992.73
2018-12-01T04:45:39.340Z,100994.84
2018-12-01T04:48:08.203Z,100990.13
2018-12-01T04:50:37.075Z,100992.22
2018-12-01T04:53:07.968Z,100989.98
2018-12-01T04:55:37.857Z,100997.28
2018-12-01T04:58:09.034Z,100998.69
2018-12-01T05:00:40.152Z,101004.19
2018-12-01T05:03:09.041Z,100997.06
2018-12-01T05:05:37.896Z,101003.75
2018-12-01T05:08:10.731Z,100999.73
2018-12-01T05:10:39.605Z,101001.56
2018-12-01T05:13:09.504Z,101000.46
2018-12-01T05:15:38.386Z,101000.75
2018-12-01T05:18:08.318Z,101000.81
2018-12-01T05:20:37.176Z,101004.42
2018-12-01T05:23:07.154Z,100999.80
2018-12-01T05:25:36.037Z,101000.81
2018-12-01T05:28:04.916Z,101002.62
2018-12-01T05:30:34.861Z,101006.61
2018-12-01T05:33:05.948Z,101007.76
2018-12-01T05:35:38.869Z,101018.17
2018-12-01T05:38:08.802Z,101016.64
2018-12-01T05:40:38.694Z,101015.47
2018-12-01T05:43:09.659Z,101005.55
2018-12-01T05:45:40.596Z,101007.80
2018-12-01T05:48:11.520Z,101003.93
2018-12-01T05:50:42.451Z,101011.48
2018-12-01T05:53:12.387Z,101004.77
2018-12-01T05:55:42.297Z,101001.40
2018-12-01T05:58:11.248Z,100999.61
2018-12-01T06:00:41.227Z,100995.44
2018-12-01T06:03:15.214Z,100995.91
2018-12-01T06:05:44.086Z,100984.62
2018-12-01T06:08:15.042Z,100977.97
2018-12-01T06:10:44.080Z,100974.33
2018-12-01T06:13:14.991Z,100971.72
2018-12-01T06:15:44.868Z,100972.83
2018-12-01T06:18:14.783Z,100968.56
2018-12-01T06:20:45.730Z,100973.96
2018-12-01T06:23:16.662Z,100977.98
2018-12-01T06:25:46.594Z,100981.17
2018-12-01T06:28:16.521Z,100977.73
2018-12-01T06:30:55.891Z,100984.38
2018-12-01T06:33:25.859Z,100981.98
2018-12-01T06:35:56.066Z,100980.94
2018-12-01T06:38:25.999Z,100983.36
2018-12-01T06:40:54.870Z,100986.59
2018-12-01T06:43:24.830Z,100985.99
2018-12-01T06:45:55.710Z,100986.03
2018-12-01T06:48:26.675Z,100991.53
2018-12-01T06:50:55.768Z,100983.89
2018-12-01T06:53:26.700Z,100987.77
2018-12-01T06:55:55.588Z,100985.02
2018-12-01T06:58:25.541Z,100988.19
2018-12-01T07:00:54.516Z,100989.80
2018-12-01T07:03:23.381Z,100982.66
2018-12-01T07:05:53.308Z,100982.26
2018-12-01T07:08:23.263Z,100978.58
2018-12-01T07:10:52.152Z,100980.36
2018-12-01T07:13:22.153Z,100972.73
2018-12-01T07:15:52.108Z,100982.61
2018-12-01T07:18:34.308Z,100976.56
2018-12-01T07:21:04.309Z,100977.99
2018-12-01T07:23:34.200Z,100978.63
2018-12-01T07:26:03.155Z,100985.64
2018-12-01T07:28:33.088Z,100983.41
2018-12-01T07:31:01.976Z,100987.39
2018-12-01T07:33:32.930Z,100976.72
2018-12-01T07:36:02.834Z,100977.91
2018-12-01T07:38:31.719Z,100979.42
2018-12-01T07:41:00.755Z,100989.14
2018-12-01T07:43:30.681Z,100991.36
2018-12-01T07:46:01.590Z,100990.63
2018-12-01T07:48:30.545Z,100994.09
2018-12-01T07:51:00.512Z,100989.61
2018-12-01T07:53:30.401Z,100992.69
2018-12-01T07:56:00.375Z,100993.03
2018-12-01T07:58:30.339Z,100991.00
2018-12-01T08:01:01.303Z,100995.42
2018-12-01T08:03:30.230Z,100997.61
2018-12-01T08:06:00.209Z,100989.27
2018-12-01T08:08:30.128Z,100976.04
2018-12-01T08:11:00.011Z,100975.28
2018-12-01T08:13:30.400Z,100972.11
2018-12-01T08:16:00.430Z,100981.93
2018-12-01T08:18:31.724Z,100986.91
2018-12-01T08:21:02.849Z,100987.34
2018-12-01T08:23:31.741Z,100985.00
2018-12-01T08:26:01.681Z,100982.33
2018-12-01T08:28:31.582Z,100980.70
2018-12-01T08:31:01.485Z,100976.04
2018-12-01T08:33:31.428Z,100971.35
2018-12-01T08:36:01.316Z,100969.23
2018-12-01T08:38:32.243Z,100981.08
2018-12-01T08:41:03.226Z,100976.52
2018-12-01T08:43:33.374Z,100985.50
2018-12-01T08:46:04.298Z,100990.63
2018-12-01T08:48:34.348Z,100986.92
2018-12-01T08:51:04.290Z,100989.39
2018-12-01T08:53:34.235Z,100986.76
2018-12-01T08:56:04.240Z,100980.72
2018-12-01T08:58:34.127Z,100979.41
2018-12-01T09:01:04.093Z,100988.64
2018-12-01T09:03:34.173Z,100992.80
2018-12-01T09:06:05.149Z,100998.70
2018-12-01T09:08:35.126Z,101003.84
2018-12-01T09:11:08.293Z,100997.42
2018-12-01T09:13:38.245Z,100996.03
2018-12-01T09:16:08.277Z,100993.64
2018-12-01T09:18:38.362Z,101001.23
2018-12-01T09:21:08.296Z,100998.17
2018-12-01T09:23:38.213Z,101004.80
2018-12-01T09:26:07.226Z,100999.03
2018-12-01T09:28:41.112Z,100995.21
2018-12-01T09:31:12.135Z,100987.13
2018-12-01T09:33:42.098Z,100988.27
2018-12-01T09:36:11.130Z,100991.69
2018-12-01T09:38:42.099Z,100992.64
2018-12-01T09:41:13.049Z,100989.85
2018-12-01T09:43:43.005Z,100986.33
2018-12-01T09:46:12.945Z,100985.52
2018-12-01T09:48:43.922Z,100985.22
2018-12-01T09:51:13.799Z,100983.14
2018-12-01T09:53:44.765Z,100975.72
2018-12-01T09:56:14.663Z,100973.75
2018-12-01T09:58:44.777Z,100969.11
2018-12-01T10:01:14.716Z,100953.81
2018-12-01T10:03:49.015Z,100959.60
2018-12-01T10:06:18.990Z,100964.65
2018-12-01T10:08:48.962Z,100974.97
2018-12-01T10:11:18.138Z,100970.77
2018-12-01T10:13:47.093Z,100961.47
2018-12-01T10:16:18.049Z,100967.34
2018-12-01T10:18:48.053Z,100954.74
2018-12-01T10:21:18.024Z,100946.69
2018-12-01T10:23:47.978Z,100947.62
2018-12-01T10:26:21.201Z,100936.23
2018-12-01T10:28:54.336Z,100943.53
2018-12-01T10:31:23.318Z,100945.05
2018-12-01T10:33:52.196Z,100938.97
2018-12-01T10:36:22.160Z,100934.60
2018-12-01T10:38:52.245Z,100936.51
2018-12-01T10:41:21.330Z,100923.38
2018-12-01T10:43:50.298Z,100922.75
2018-12-01T10:46:21.270Z,100929.38
2018-12-01T10:48:51.266Z,100932.88
2018-12-01T10:51:20.215Z,100931.54
2018-12-01T10:53:50.195Z,100939.88
2018-12-01T10:56:19.205Z,100933.47
2018-12-01T10:58:49.096Z,100930.02
2018-12-01T11:01:24.248Z,100921.96
2018-12-01T11:03:55.248Z,100918.68
2018-12-01T11:06:29.514Z,100920.02
2018-12-01T11:08:59.710Z,100917.75
2018-12-01T11:11:30.684Z,100917.34
2018-12-01T11:14:09.962Z,100908.30
2018-12-01T11:16:39.919Z,100901.80
2018-12-01T11:19:09.844Z,100899.64
2018-12-01T11:21:38.879Z,100898.56
2018-12-01T11:24:08.845Z,100890.36
2018-12-01T11:26:38.775Z,100892.83
2018-12-01T11:29:08.781Z,100878.36
2018-12-01T11:31:37.833Z,100870.50
2018-12-01T11:34:08.931Z,100870.41
2018-12-01T11:36:37.945Z,100867.03
2018-12-01T11:39:08.507Z,100858.06
2018-12-01T11:41:37.451Z,100853.86
2018-12-01T11:44:07.578Z,100853.94
2018-12-01T11:46:37.578Z,100844.84
2018-12-01T11:49:07.483Z,100844.06
2018-12-01T11:51:37.409Z,100836.77
2018-12-01T11:54:07.343Z,100833.27
2018-12-01T11:56:37.351Z,100836.69
2018-12-01T11:59:08.509Z,100821.16
2018-12-01T12:01:38.670Z,100811.60
2018-12-01T12:04:08.643Z,100811.91
2018-12-01T12:06:38.617Z,100808.98
2018-12-01T12:09:08.876Z,100807.64
2018-12-01T12:11:38.820Z,100806.68
2018-12-01T12:14:08.829Z,100802.80
2018-12-01T12:16:37.795Z,100799.60
2018-12-01T12:19:08.718Z,100795.33
2018-12-01T12:21:38.643Z,100792.56
2018-12-01T12:24:07.737Z,100795.41
2018-12-01T12:26:37.782Z,100792.41
2018-12-01T12:29:07.793Z,100791.38
2018-12-01T12:31:37.856Z,100794.80
2018-12-01T12:34:07.806Z,100787.79
2018-12-01T12:36:36.887Z,100793.61
2018-12-01T12:39:07.454Z,100782.91
2018-12-01T12:41:36.380Z,100777.16
2018-12-01T12:44:05.822Z,100776.92
2018-12-01T12:46:36.764Z,100772.53
2018-12-01T12:49:06.041Z,100768.92
2018-12-01T12:51:35.934Z,100776.77
2018-12-01T12:54:06.510Z,100775.38
2018-12-01T12:56:37.440Z,100777.02
2018-12-01T12:59:07.336Z,100768.77
2018-12-01T13:01:37.300Z,100766.69
2018-12-01T13:04:07.290Z,100766.84
2018-12-01T13:06:37.231Z,100762.65
2018-12-01T13:09:09.160Z,100756.00
2018-12-01T13:11:39.069Z,100759.30
2018-12-01T13:14:09.036Z,100763.11
2018-12-01T13:16:39.049Z,100757.27
2018-12-01T13:19:14.870Z,100754.64
2018-12-01T13:21:45.834Z,100754.72
2018-12-01T13:24:16.713Z,100745.52
2018-12-01T13:26:45.626Z,100751.44
2018-12-01T13:29:16.565Z,100737.59
2018-12-01T13:31:45.418Z,100748.74
2018-12-01T13:34:14.345Z,100746.21
2018-12-01T13:36:43.251Z,100748.59
2018-12-01T13:39:14.250Z,100741.17
2018-12-01T13:41:44.184Z,100748.45
2018-12-01T13:44:15.149Z,100742.83
2018-12-01T13:46:49.422Z,100731.92
2018-12-01T13:49:18.351Z,100733.86
2018-12-01T13:51:48.241Z,100729.30
2018-12-01T13:54:18.177Z,100724.52
2018-12-01T13:56:48.066Z,100723.45
2018-12-01T13:59:22.064Z,100713.36
2018-12-01T14:01:51.996Z,100717.99
2018-12-01T14:04:24.190Z,100716.38
2018-12-01T14:06:54.224Z,100712.98
2018-12-01T14:09:24.141Z,100717.17
2018-12-01T14:11:53.035Z,100718.82
2018-12-01T14:14:23.028Z,100708.52
2018-12-01T14:16:53.028Z,100700.36
2018-12-01T14:19:22.980Z,100709.72
2018-12-01T14:21:53.964Z,100712.05
2018-12-01T14:24:24.321Z,100704.57
2018-12-01T14:26:55.906Z,100707.22
2018-12-01T14:29:24.937Z,100707.31
2018-12-01T14:31:54.139Z,100709.86
2018-12-01T14:34:23.107Z,100707.16
2018-12-01T14:36:55.543Z,100706.11
2018-12-01T14:39:26.502Z,100698.66
2018-12-01T14:41:56.613Z,100700.51
2018-12-01T14:44:25.816Z,100702.09
2018-12-01T14:46:55.317Z,100700.67
2018-12-01T14:49:25.208Z,100698.52
2018-12-01T14:51:55.179Z,100702.91
2018-12-01T14:54:24.108Z,100687.80
2018-12-01T14:56:54.300Z,100689.53
2018-12-01T14:59:24.423Z,100683.25
2018-12-01T15:01:53.460Z,100678.33
2018-12-01T15:04:23.376Z,100682.72
2018-12-01T15:06:53.533Z,100678.61
2018-12-01T15:09:23.536Z,100677.41
2018-12-01T15:11:52.547Z,100678.68
2018-12-01T15:14:22.701Z,100689.05
2018-12-01T15:16:52.653Z,100693.09
2018-12-01T15:19:22.619Z,100691.39
2018-12-01T15:21:52.622Z,100684.41
2018-12-01T15:24:22.619Z,100684.45
2018-12-01T15:26:52.965Z,100685.25
2018-12-01T15:29:22.969Z,100683.11
2018-12-01T15:31:52.031Z,100676.30
2018-12-01T15:34:22.008Z,100671.94
2018-12-01T15:36:52.033Z,100664.77
2018-12-01T15:39:28.558Z,100655.31
2018-12-01T15:41:58.555Z,100652.86
2018-12-01T15:44:28.465Z,100649.20
2018-12-01T15:46:57.582Z,100644.60
2018-12-01T15:49:27.677Z,100649.36
2018-12-01T15:51:56.858Z,100640.21
2018-12-01T15:54:26.811Z,100637.75
2018-12-01T15:56:56.736Z,100627.45
2018-12-01T15:59:30.772Z,100627.20
2018-12-01T16:02:00.707Z,100618.30
2018-12-01T16:04:30.658Z,100613.55
2018-12-01T16:07:00.686Z,100606.80
2018-12-01T16:09:30.629Z,100606.34
2018-12-01T16:12:00.893Z,100595.39
2018-12-01T16:14:30.783Z,100593.61
2018-12-01T16:17:00.798Z,100586.00
2018-12-01T16:19:33.035Z,100583.06
2018-12-01T16:22:02.928Z,100581.45
2018-12-01T16:24:32.832Z,100576.37
2018-12-01T16:27:02.755Z,100576.54
2018-12-01T16:29:32.725Z,100574.18
2018-12-01T16:32:01.636Z,100569.73
2018-12-01T16:34:31.550Z,100571.84
2018-12-01T16:37:11.828Z,100575.95
2018-12-01T16:39:40.929Z,100575.16
2018-12-01T16:42:10.822Z,100570.55
2018-12-01T16:44:40.726Z,100572.73
2018-12-01T16:47:10.641Z,100561.35
2018-12-01T16:49:39.512Z,100543.53
2018-12-01T16:52:09.522Z,100539.31
2018-12-01T16:54:38.487Z,100532.52
2018-12-01T16:57:07.518Z,100533.58
2018-12-01T16:59:38.471Z,100524.44
2018-12-01T17:02:08.423Z,100514.93
2018-12-01T17:04:42.400Z,100509.59
2018-12-01T17:07:13.377Z,100503.83
2018-12-01T17:09:44.300Z,100498.97
2018-12-01T17:12:13.251Z,100487.98
2018-12-01T17:14:42.195Z,100477.45
2018-12-01T17:17:12.090Z,100467.69
2018-12-01T17:19:42.046Z,100466.58
2018-12-01T17:22:12.109Z,100463.39
2018-12-01T17:24:44.927Z,100453.87
2018-12-01T17:27:14.936Z,100452.22
2018-12-01T17:29:43.938Z,100449.77
2018-12-01T17:32:14.881Z,100449.52
2018-12-01T17:34:45.839Z,100444.95
2018-12-01T17:37:15.829Z,100442.26
2018-12-01T17:39:50.362Z,100430.17
2018-12-01T17:42:21.287Z,100433.73
2018-12-01T17:44:50.185Z,100423.88
2018-12-01T17:47:20.109Z,100420.31
2018-12-01T17:49:52.812Z,100411.13
2018-12-01T17:52:22.756Z,100409.43
2018-12-01T17:54:53.766Z,100412.73
2018-12-01T17:57:24.650Z,100401.00
2018-12-01T17:59:54.721Z,100403.11
2018-12-01T18:02:27.981Z,100397.73
2018-12-01T18:04:57.980Z,100398.70
2018-12-01T18:07:27.947Z,100402.87
2018-12-01T18:09:57.946Z,100387.96
2018-12-01T18:12:27.835Z,100396.08
2018-12-01T18:14:57.750Z,100381.88
2018-12-01T18:17:27.659Z,100381.88
2018-12-01T18:19:57.606Z,100385.50
2018-12-01T18:22:28.498Z,100389.52
2018-12-01T18:24:58.426Z,100376.76
2018-12-01T18:27:28.508Z,100378.07
2018-12-01T18:29:58.491Z,100371.30
2018-12-01T18:32:28.374Z,100365.84
2018-12-01T18:34:57.267Z,100369.10
2018-12-01T18:37:26.166Z,100363.23
2018-12-01T18:39:56.101Z,100357.48
2018-12-01T18:42:25.976Z,100353.97
2018-12-01T18:44:54.911Z,100349.94
2018-12-01T18:47:24.831Z,100351.25
2018-12-01T18:49:58.591Z,100342.02
2018-12-01T18:52:34.004Z,100344.38
2018-12-01T18:55:03.939Z,100333.73
2018-12-01T18:57:35.360Z,100337.16
2018-12-01T19:00:11.757Z,100328.37
2018-12-01T19:02:41.786Z,100324.46
2018-12-01T19:05:11.706Z,100323.43
2018-12-01T19:07:41.066Z,100310.25
2018-12-01T19:10:15.655Z,100298.64
2018-12-01T19:12:49.693Z,100300.48
2018-12-01T19:15:18.828Z,100300.48
2018-12-01T19:17:48.947Z,100298.26
2018-12-01T19:20:18.325Z,100300.21
2018-12-01T19:22:49.094Z,100297.07
2018-12-01T19:25:20.202Z,100294.47
2018-12-01T19:27:51.058Z,100295.64
2018-12-01T19:30:21.769Z,100287.14
2018-12-01T19:33:02.944Z,100281.13
2018-12-01T19:35:33.029Z,100283.73
2018-12-01T19:38:03.039Z,100279.62
2018-12-01T19:40:34.056Z,100282.89
2018-12-01T19:43:04.005Z,100280.86
2018-12-01T19:45:33.918Z,100276.95
2018-12-01T19:48:04.962Z,100261.66
2018-12-01T19:50:38.850Z,100264.77
2018-12-01T19:53:11.840Z,100261.02
2018-12-01T19:55:41.994Z,100254.42
2018-12-01T19:58:14.377Z,100250.63
2018-12-01T20:00:55.247Z,100242.24
2018-12-01T20:03:30.577Z,100241.41
2018-12-01T20:06:00.458Z,100238.07
2018-12-01T20:08:30.425Z,100226.50
2018-12-01T20:11:02.814Z,100232.94
2018-12-01T20:13:41.164Z,100228.15
2018-12-01T20:16:23.359Z,100227.42
2018-12-01T20:18:53.981Z,100228.38
2018-12-01T20:21:24.083Z,100220.78
2018-12-01T20:23:54.062Z,100225.84
2018-12-01T20:26:25.069Z,100224.08
2018-12-01T20:28:55.183Z,100224.34
2018-12-01T20:31:25.141Z,100216.60
2018-12-01T20:33:57.662Z,100212.00
2018-12-01T20:36:36.362Z,100215.56
2018-12-01T20:39:14.142Z,100211.01
2018-12-01T20:41:44.028Z,100211.38
2018-12-01T20:44:13.316Z,100212.34
2018-12-01T20:46:43.304Z,100190.96
2018-12-01T20:49:13.705Z,100190.23
2018-12-01T20:51:43.706Z,100195.98
2018-12-01T20:54:22.074Z,100194.48
2018-12-01T20:56:54.873Z,100188.72
2018-12-01T20:59:24.105Z,100187.09
2018-12-01T21:01:54.430Z,100184.34
2018-12-01T21:04:25.821Z,100181.36
2018-12-01T21:06:55.624Z,100178.67
2018-12-01T21:09:24.923Z,100173.21
2018-12-01T21:11:54.901Z,100166.58
2018-12-01T21:14:24.247Z,100174.32
2018-12-01T21:16:54.503Z,100159.70
2018-12-01T21:19:24.425Z,100159.94
2018-12-01T21:21:53.300Z,100157.62
2018-12-01T21:24:22.147Z,100158.13
2018-12-01T21:26:52.116Z,100153.09
2018-12-01T21:29:22.040Z,100151.19
2018-12-01T21:31:50.913Z,100150.58
2018-12-01T21:34:20.850Z,100149.30
2018-12-01T21:36:49.737Z,100141.58
2018-12-01T21:39:18.596Z,100133.95
2018-12-01T21:41:48.770Z,100131.10
2018-12-01T21:44:17.614Z,100127.91
2018-12-01T21:46:46.528Z,100126.16
2018-12-01T21:49:15.414Z,100126.62
2018-12-01T21:51:45.379Z,100124.64
2018-12-01T21:54:15.339Z,100128.23
2018-12-01T21:56:45.278Z,100126.64
2018-12-01T21:59:15.195Z,100129.16
2018-12-01T22:01:45.115Z,100130.73
2018-12-01T22:04:15.792Z,100129.22
2018-12-01T22:06:49.532Z,100128.17
2018-12-01T22:09:19.494Z,100129.88
2018-12-01T22:11:49.420Z,100124.87
2018-12-01T22:14:19.338Z,100120.59
2018-12-01T22:16:50.268Z,100122.09
2018-12-01T22:19:21.265Z,100120.03
2018-12-01T22:21:51.124Z,100116.55
2018-12-01T22:24:21.063Z,100106.45
2018-12-01T22:26:49.932Z,100104.16
2018-12-01T22:29:19.903Z,100101.02
2018-12-01T22:31:48.758Z,100094.92
2018-12-01T22:34:17.620Z,100083.73
2018-12-01T22:36:46.481Z,100076.90
2018-12-01T22:39:15.351Z,100085.99
2018-12-01T22:41:44.203Z,100083.19
2018-12-01T22:44:14.112Z,100089.37
2018-12-01T22:46:47.000Z,100084.70
2018-12-01T22:49:17.022Z,100082.50
2018-12-01T22:51:46.995Z,100086.83
2018-12-01T22:54:16.884Z,100081.56
2018-12-01T22:56:50.188Z,100084.14
2018-12-01T22:59:20.056Z,100083.90
2018-12-01T23:01:49.968Z,100090.08
2018-12-01T23:04:19.895Z,100083.95
2018-12-01T23:06:54.924Z,100086.64
2018-12-01T23:09:24.846Z,100089.95
2018-12-01T23:11:54.777Z,100079.62
2018-12-01T23:14:24.688Z,100081.27
2018-12-01T23:16:54.817Z,100083.02
2018-12-01T23:19:24.732Z,100086.45
2018-12-01T23:21:54.692Z,100081.89
2018-12-01T23:24:24.744Z,100077.34
2018-12-01T23:26:54.972Z,100074.91
2018-12-01T23:29:24.982Z,100073.31
2018-12-01T23:31:53.819Z,100068.69
2018-12-01T23:34:23.717Z,100066.11
2018-12-01T23:36:55.660Z,100055.36
2018-12-01T23:39:25.608Z,100052.48
2018-12-01T23:41:55.588Z,100038.13
2018-12-01T23:44:29.688Z,100040.58
2018-12-01T23:46:59.612Z,100039.34
2018-12-01T23:49:30.595Z,100035.45
2018-12-01T23:51:59.592Z,100027.97
2018-12-01T23:54:28.577Z,100028.53
2018-12-01T23:56:57.550Z,100026.39
2018-12-01T23:59:26.541Z,100027.48
